Station Historical Data
Daily Summary for August 5, 2017 Units:  English    Metric   Both
« Previous Day
Next Day »
Daily Weekly Monthly Yearly Custom
  High: Low: Average:
Temperature: 85.2 °F 68.7 °F 76.5 °F
Dew Point: 71.0 °F 60.7 °F 66.7 °F
Humidity: 90% 53% 73%
Wind Speed: 2.0mph 0.0mph 0.1mph
Wind Gust: 6.0mph - -
Wind- - SW
Pressure: 30.09 in 29.99 in -
Precipitation: 0.00 in    
Historical Graphs
 
 
Tabular Data for August 5, 2017
Time Temperature Dew Point Pressure Wind Wind Speed Wind Gust Humidity Rainfall Rate (Hourly) Conditions
00:00 76.0 °F 69.7 °F 30.00 in Calm     81% 0.00 in BKN
00:05 76.0 °F 69.4 °F 30.00 in Calm     80% 0.00 in OVC
00:10 75.9 °F 69.3 °F 30.00 in Calm     80% 0.00 in OVC
00:15 75.8 °F 68.8 °F 30.00 in Calm     79% 0.00 in OVC
00:20 75.7 °F 68.4 °F 30.00 in Calm     78% 0.00 in BKN
00:25 75.6 °F 68.3 °F 30.00 in Calm     78% 0.00 in BKN
00:30 75.6 °F 68.2 °F 30.00 in Calm     78% 0.00 in BKN
00:35 75.5 °F 68.5 °F 30.01 in Calm     79% 0.00 in BKN
00:40 75.5 °F 69.3 °F 30.00 in Calm     81% 0.00 in BKN
00:45 75.5 °F 69.6 °F 30.00 in Calm     82% 0.00 in BKN
00:50 75.5 °F 69.6 °F 30.01 in Calm     82% 0.00 in FEW
00:55 75.5 °F 70.3 °F 30.00 in Calm     84% 0.00 in FEW
01:00 75.5 °F 70.3 °F 30.00 in Calm     84% 0.00 in FEW
01:05 75.5 °F 70.7 °F 30.00 in Calm   1.0 mph 85% 0.00 in FEW
01:10 75.5 °F 71.0 °F 30.00 in Calm     86% 0.00 in FEW
01:15 75.5 °F 71.0 °F 30.00 in Calm     86% 0.00 in FEW
01:20 75.4 °F 70.9 °F 30.00 in Calm   1.0 mph 86% 0.00 in -RA
01:25 75.2 °F 70.4 °F 30.00 in Calm     85% 0.00 in -RA
01:30 75.1 °F 70.6 °F 30.00 in Calm   1.0 mph 86% 0.00 in -RA
01:35 74.9 °F 70.1 °F 30.01 in Calm     85% 0.00 in -RA
01:40 74.7 °F 69.9 °F 30.01 in Calm     85% 0.00 in -RA
01:45 74.4 °F 69.6 °F 30.01 in Calm     85% 0.00 in -RA
01:50 74.2 °F 69.8 °F 30.01 in Calm     86% 0.00 in BKN
01:55 74.1 °F 69.6 °F 30.01 in Calm     86% 0.00 in BKN
02:00 74.0 °F 69.5 °F 30.01 in Calm     86% 0.00 in BKN
02:05 73.8 °F 69.3 °F 30.01 in Calm     86% 0.00 in BKN
02:10 73.6 °F 69.1 °F 30.01 in Calm     86% 0.00 in BKN
02:15 73.4 °F 69.0 °F 30.01 in Calm     86% 0.00 in BKN
02:20 73.3 °F 68.9 °F 30.01 in Calm     86% 0.00 in SCT
02:25 73.2 °F 68.8 °F 30.01 in Calm     86% 0.00 in SCT
02:30 73.1 °F 68.7 °F 30.01 in Calm     86% 0.00 in SCT
02:40 72.8 °F 68.4 °F 30.01 in Calm     86% 0.00 in SCT
02:45 72.6 °F 67.5 °F 30.01 in Calm     84% 0.00 in SCT
02:50 72.5 °F 67.0 °F 30.02 in Calm     83% 0.00 in SCT
02:55 72.4 °F 66.9 °F 30.01 in Calm     83% 0.00 in SCT
03:00 72.4 °F 67.3 °F 30.01 in Calm     84% 0.00 in SCT
03:05 72.4 °F 66.9 °F 30.01 in Calm     83% 0.00 in SCT
03:10 72.3 °F 67.2 °F 30.02 in Calm     84% 0.00 in SCT
03:15 72.3 °F 67.2 °F 30.01 in Calm     84% 0.00 in SCT
03:20 72.2 °F 67.1 °F 30.01 in Calm     84% 0.00 in FEW
03:25 72.1 °F 67.0 °F 30.01 in Calm     84% 0.00 in FEW
03:30 72.1 °F 67.0 °F 30.01 in Calm     84% 0.00 in SCT
03:35 72.0 °F 66.9 °F 30.01 in Calm   1.0 mph 84% 0.00 in SCT
03:40 71.9 °F 66.8 °F 30.01 in Calm     84% 0.00 in SCT
03:45 71.9 °F 67.1 °F 30.00 in Calm     85% 0.00 in SCT
03:50 71.8 °F 67.0 °F 30.00 in Calm   1.0 mph 85% 0.00 in SCT
03:55 71.7 °F 67.0 °F 30.00 in Calm     85% 0.00 in SCT
04:00 71.7 °F 67.3 °F 30.00 in Calm     86% 0.00 in SCT
04:05 71.6 °F 67.2 °F 30.00 in Calm     86% 0.00 in BKN
04:10 71.6 °F 67.2 °F 30.00 in Calm     86% 0.00 in BKN
04:15 71.5 °F 67.1 °F 30.00 in Calm     86% 0.00 in BKN
04:20 71.5 °F 67.1 °F 30.00 in Calm     86% 0.00 in SCT
04:25 71.4 °F 67.3 °F 30.00 in Calm     87% 0.00 in SCT
04:30 71.4 °F 67.3 °F 30.00 in Calm   1.0 mph 87% 0.00 in SCT
04:35 71.4 °F 67.3 °F 30.00 in Calm     87% 0.00 in SCT
04:40 71.3 °F 67.2 °F 29.99 in Calm     87% 0.00 in SCT
04:45 71.3 °F 67.2 °F 29.99 in Calm     87% 0.00 in SCT
04:50 71.2 °F 67.5 °F 29.99 in Calm     88% 0.00 in SCT
04:55 71.1 °F 67.4 °F 29.99 in Calm     88% 0.00 in SCT
05:00 71.0 °F 67.3 °F 29.99 in Calm   1.0 mph 88% 0.00 in SCT
05:05 70.9 °F 67.2 °F 29.99 in Calm     88% 0.00 in SCT
05:10 70.9 °F 67.2 °F 29.99 in Calm   1.0 mph 88% 0.00 in SCT
05:15 70.8 °F 67.1 °F 29.99 in Calm     88% 0.00 in SCT
05:20 70.8 °F 67.1 °F 29.99 in Calm   1.0 mph 88% 0.00 in FEW
05:25 70.8 °F 67.0 °F 29.99 in Calm     88% 0.00 in FEW
05:30 70.7 °F 67.0 °F 29.99 in Calm   1.0 mph 88% 0.00 in FEW
05:35 70.6 °F 66.9 °F 29.99 in Calm     88% 0.00 in FEW
05:40 70.5 °F 66.8 °F 29.99 in Calm     88% 0.00 in FEW
05:45 70.4 °F 66.7 °F 29.99 in Calm     88% 0.00 in FEW
05:50 70.3 °F 66.6 °F 30.00 in Calm     88% 0.00 in FEW
05:55 70.2 °F 66.8 °F 29.99 in Calm     89% 0.00 in FEW
06:00 70.1 °F 66.7 °F 30.00 in Calm     89% 0.00 in FEW
06:05 69.9 °F 66.5 °F 30.00 in Calm     89% 0.00 in FEW
06:10 69.8 °F 66.4 °F 30.00 in Calm     89% 0.00 in FEW
06:15 69.6 °F 66.2 °F 30.00 in Calm     89% 0.00 in FEW
06:20 69.5 °F 66.1 °F 30.00 in Calm     89% 0.00 in CLR
06:25 69.4 °F 66.0 °F 30.00 in Calm     89% 0.00 in CLR
06:30 69.3 °F 65.9 °F 30.00 in Calm     89% 0.00 in CLR
06:35 69.1 °F 65.8 °F 30.00 in Calm     89% 0.00 in CLR
06:40 69.0 °F 65.7 °F 30.01 in Calm     89% 0.00 in CLR
06:45 68.9 °F 65.6 °F 30.01 in Calm     89% 0.00 in CLR
06:50 68.9 °F 65.5 °F 30.01 in Calm     89% 0.00 in CLR
06:55 68.8 °F 65.4 °F 30.01 in Calm     89% 0.00 in CLR
07:00 68.8 °F 65.7 °F 30.01 in Calm   2.0 mph 90% 0.00 in CLR
07:05 68.8 °F 65.7 °F 30.01 in Calm     90% 0.00 in CLR
07:10 68.7 °F 65.6 °F 30.01 in Calm   2.0 mph 90% 0.00 in CLR
07:15 68.7 °F 65.6 °F 30.02 in Calm     90% 0.00 in CLR
07:20 68.7 °F 65.6 °F 30.02 in Calm     90% 0.00 in FEW
07:25 68.7 °F 65.6 °F 30.02 in Calm     90% 0.00 in FEW
07:30 68.7 °F 65.6 °F 30.02 in Calm     90% 0.00 in FEW
07:35 68.7 °F 65.6 °F 30.03 in Calm   2.0 mph 90% 0.00 in FEW
07:40 68.8 °F 65.7 °F 30.03 in Calm   1.0 mph 90% 0.00 in FEW
07:45 68.9 °F 65.8 °F 30.03 in Calm   1.0 mph 90% 0.00 in FEW
07:50 69.0 °F 65.9 °F 30.03 in Calm   1.0 mph 90% 0.00 in FEW
07:55 69.0 °F 66.0 °F 30.03 in Calm     90% 0.00 in FEW
08:00 69.2 °F 66.1 °F 30.04 in Calm   1.0 mph 90% 0.00 in FEW
08:05 69.3 °F 65.9 °F 30.04 in Calm     89% 0.00 in FEW
08:10 69.4 °F 66.1 °F 30.04 in Calm     89% 0.00 in FEW
08:15 69.6 °F 66.2 °F 30.04 in Calm     89% 0.00 in FEW
08:20 69.8 °F 66.4 °F 30.04 in Calm     89% 0.00 in FEW
08:25 70.1 °F 66.7 °F 30.05 in Calm     89% 0.00 in FEW
08:30 70.3 °F 66.5 °F 30.05 in Calm   1.0 mph 88% 0.00 in FEW
08:35 70.4 °F 66.7 °F 30.05 in Calm   1.0 mph 88% 0.00 in FEW
08:40 70.6 °F 66.5 °F 30.05 in Calm   1.0 mph 87% 0.00 in FEW
08:45 70.7 °F 66.6 °F 30.06 in Calm   2.0 mph 87% 0.00 in FEW
08:50 71.0 °F 66.9 °F 30.06 in Calm   1.0 mph 87% 0.00 in FEW
08:55 71.3 °F 66.9 °F 30.06 in Calm   1.0 mph 86% 0.00 in FEW
09:00 71.6 °F 66.8 °F 30.06 in Calm   2.0 mph 85% 0.00 in FEW
09:05 71.9 °F 67.1 °F 30.06 in Calm   2.0 mph 85% 0.00 in FEW
09:10 72.1 °F 67.0 °F 30.07 in Calm   2.0 mph 84% 0.00 in FEW
09:15 72.2 °F 66.8 °F 30.07 in Calm   1.0 mph 83% 0.00 in FEW
09:20 72.6 °F 67.5 °F 30.07 in Calm   1.0 mph 84% 0.00 in FEW
09:25 72.9 °F 67.4 °F 30.07 in Calm   2.0 mph 83% 0.00 in FEW
09:30 73.2 °F 67.7 °F 30.07 in Calm   2.0 mph 83% 0.00 in FEW
09:40 74.1 °F 67.9 °F 30.07 in Calm   1.0 mph 81% 0.00 in FEW
09:45 74.3 °F 67.0 °F 30.07 in Calm   1.0 mph 78% 0.00 in FEW
09:50 74.4 °F 67.5 °F 30.07 in Calm   1.0 mph 79% 0.00 in FEW
09:55 74.7 °F 67.4 °F 30.08 in Calm   2.0 mph 78% 0.00 in FEW
10:00 74.9 °F 67.6 °F 30.08 in North 1.0 mph 2.0 mph 78% 0.00 in FEW
10:05 75.0 °F 67.7 °F 30.08 in SW 1.0 mph 3.0 mph 78% 0.00 in FEW
10:10 75.4 °F 67.3 °F 30.08 in SW 1.0 mph 1.0 mph 76% 0.00 in FEW
10:15 75.7 °F 67.6 °F 30.08 in Calm   1.0 mph 76% 0.00 in FEW
10:20 75.9 °F 67.4 °F 30.08 in South 1.0 mph 3.0 mph 75% 0.00 in FEW
10:25 76.1 °F 67.2 °F 30.08 in Calm   2.0 mph 74% 0.00 in FEW
10:30 76.5 °F 67.6 °F 30.08 in Calm   2.0 mph 74% 0.00 in FEW
10:35 76.9 °F 67.6 °F 30.08 in SW 1.0 mph 2.0 mph 73% 0.00 in FEW
10:40 77.0 °F 67.3 °F 30.08 in West 1.0 mph 3.0 mph 72% 0.00 in FEW
10:45 77.3 °F 68.0 °F 30.09 in Calm   1.0 mph 73% 0.00 in FEW
10:50 77.7 °F 67.6 °F 30.08 in Calm   1.0 mph 71% 0.00 in FEW
10:55 77.8 °F 67.6 °F 30.08 in ESE 1.0 mph 2.0 mph 71% 0.00 in FEW
11:00 77.8 °F 67.6 °F 30.09 in Calm   5.0 mph 71% 0.00 in FEW
11:05 78.2 °F 68.1 °F 30.09 in Calm   1.0 mph 71% 0.00 in FEW
11:10 78.7 °F 68.1 °F 30.08 in Calm   1.0 mph 70% 0.00 in FEW
11:15 78.5 °F 66.7 °F 30.08 in SW 1.0 mph 3.0 mph 67% 0.00 in FEW
11:20 78.4 °F 67.4 °F 30.08 in Calm   1.0 mph 69% 0.00 in FEW
11:25 78.7 °F 67.6 °F 30.08 in Calm   1.0 mph 69% 0.00 in FEW
11:30 78.9 °F 67.4 °F 30.08 in NNW 1.0 mph 1.0 mph 68% 0.00 in FEW
11:35 79.0 °F 67.5 °F 30.08 in Calm   1.0 mph 68% 0.00 in FEW
11:40 79.2 °F 67.3 °F 30.08 in WNW 1.0 mph 2.0 mph 67% 0.00 in FEW
11:45 79.3 °F 68.3 °F 30.08 in Calm   1.0 mph 69% 0.00 in FEW
11:50 79.5 °F 67.6 °F 30.08 in West 1.0 mph 2.0 mph 67% 0.00 in FEW
11:55 79.8 °F 67.0 °F 30.08 in Calm   2.0 mph 65% 0.00 in FEW
12:00 79.9 °F 67.1 °F 30.08 in West 1.0 mph 5.0 mph 65% 0.00 in FEW
12:05 79.6 °F 66.8 °F 30.08 in South 1.0 mph 3.0 mph 65% 0.00 in FEW
12:10 79.9 °F 67.5 °F 30.07 in Calm   2.0 mph 66% 0.00 in FEW
12:15 80.4 °F 67.5 °F 30.07 in East 1.0 mph 1.0 mph 65% 0.00 in FEW
12:20 80.7 °F 67.9 °F 30.07 in Calm   2.0 mph 65% 0.00 in SCT
12:25 80.9 °F 67.1 °F 30.07 in SW 1.0 mph 6.0 mph 63% 0.00 in SCT
12:30 81.1 °F 67.3 °F 30.07 in South 1.0 mph 3.0 mph 63% 0.00 in SCT
12:35 81.5 °F 68.6 °F 30.07 in Calm   2.0 mph 65% 0.00 in SCT
12:45 82.3 °F 68.0 °F 30.06 in Calm   1.0 mph 62% 0.00 in SCT
12:50 82.6 °F 67.8 °F 30.06 in Calm   3.0 mph 61% 0.00 in SCT
12:55 83.5 °F 67.7 °F 30.06 in ESE 1.0 mph 2.0 mph 59% 0.00 in SCT
13:00 83.6 °F 67.8 °F 30.06 in SW 1.0 mph 3.0 mph 59% 0.00 in SCT
13:05 84.1 °F 68.2 °F 30.05 in WSW 1.0 mph 3.0 mph 59% 0.00 in SCT
13:10 84.6 °F 67.7 °F 30.05 in NW 1.0 mph 3.0 mph 57% 0.00 in SCT
13:15 84.7 °F 67.8 °F 30.05 in Calm   2.0 mph 57% 0.00 in SCT
13:20 84.8 °F 67.3 °F 30.05 in NNW 1.0 mph 2.0 mph 56% 0.00 in SCT
13:25 85.0 °F 67.5 °F 30.05 in Calm   5.0 mph 56% 0.00 in SCT
13:30 85.2 °F 66.7 °F 30.05 in Calm   2.0 mph 54% 0.00 in SCT
13:40 84.6 °F 67.6 °F 30.05 in Calm   2.0 mph 57% 0.00 in SCT
13:45 84.3 °F 67.4 °F 30.05 in Calm   1.0 mph 57% 0.00 in SCT
13:50 84.8 °F 68.9 °F 30.05 in Calm   1.0 mph 59% 0.00 in SCT
13:55 85.0 °F 67.6 °F 30.05 in NNW 1.0 mph 2.0 mph 56% 0.00 in SCT
14:00 84.5 °F 67.6 °F 30.05 in Calm   1.0 mph 57% 0.00 in SCT
14:05 84.6 °F 67.7 °F 30.05 in Calm   1.0 mph 57% 0.00 in SCT
14:10 84.9 °F 67.9 °F 30.05 in WSW 1.0 mph 2.0 mph 57% 0.00 in SCT
14:15 84.4 °F 68.0 °F 30.05 in Calm   1.0 mph 58% 0.00 in SCT
14:20 84.3 °F 67.4 °F 30.05 in Calm   3.0 mph 57% 0.00 in SCT
14:25 84.0 °F 67.1 °F 30.05 in West 1.0 mph 5.0 mph 57% 0.00 in SCT
14:30 84.2 °F 67.9 °F 30.05 in West 1.0 mph 1.0 mph 58% 0.00 in SCT
14:35 84.5 °F 67.6 °F 30.05 in Calm   1.0 mph 57% 0.00 in SCT
14:40 84.8 °F 68.4 °F 30.05 in Calm   1.0 mph 58% 0.00 in SCT
14:45 84.7 °F 66.7 °F 30.05 in NNE 1.0 mph 2.0 mph 55% 0.00 in SCT
14:50 84.3 °F 67.4 °F 30.05 in SE 2.0 mph 5.0 mph 57% 0.00 in SCT
14:55 84.2 °F 67.8 °F 30.05 in WNW 1.0 mph 1.0 mph 58% 0.00 in SCT
15:00 84.4 °F 67.5 °F 30.05 in Calm   2.0 mph 57% 0.00 in SCT
15:10 84.4 °F 67.5 °F 30.04 in Calm   5.0 mph 57% 0.00 in SCT
15:15 84.5 °F 66.0 °F 30.04 in WNW 1.0 mph 3.0 mph 54% 0.00 in SCT
15:20 84.3 °F 66.4 °F 30.04 in Calm   2.0 mph 55% 0.00 in SCT
15:25 84.5 °F 67.0 °F 30.04 in Calm   2.0 mph 56% 0.00 in SCT
15:30 84.5 °F 65.5 °F 30.04 in WSW 1.0 mph 2.0 mph 53% 0.00 in SCT
15:35 84.2 °F 65.2 °F 30.04 in SSW 1.0 mph 5.0 mph 53% 0.00 in SCT
15:40 84.0 °F 65.6 °F 30.03 in Calm   3.0 mph 54% 0.00 in SCT
15:45 84.1 °F 66.7 °F 30.03 in Calm   1.0 mph 56% 0.00 in SCT
15:50 84.2 °F 66.8 °F 30.03 in Calm   3.0 mph 56% 0.00 in SCT
15:55 84.3 °F 65.3 °F 30.03 in SSW 1.0 mph 5.0 mph 53% 0.00 in SCT
16:00 84.1 °F 65.1 °F 30.02 in Calm   2.0 mph 53% 0.00 in SCT
16:05 84.1 °F 66.7 °F 30.03 in Calm   2.0 mph 56% 0.00 in SCT
16:10 84.2 °F 66.8 °F 30.03 in Calm   1.0 mph 56% 0.00 in SCT
16:15 83.8 °F 66.4 °F 30.02 in Calm   1.0 mph 56% 0.00 in SCT
16:20 83.6 °F 66.2 °F 30.03 in ENE 1.0 mph 2.0 mph 56% 0.00 in SCT
16:25 83.6 °F 66.2 °F 30.03 in Calm   1.0 mph 56% 0.00 in SCT
16:30 83.4 °F 66.6 °F 30.02 in ESE 1.0 mph 3.0 mph 57% 0.00 in SCT
16:35 83.3 °F 66.4 °F 30.02 in Calm   1.0 mph 57% 0.00 in SCT
16:40 83.2 °F 67.9 °F 30.02 in Calm   2.0 mph 60% 0.00 in SCT
16:45 83.2 °F 66.9 °F 30.03 in Calm   2.0 mph 58% 0.00 in SCT
16:50 83.0 °F 67.7 °F 30.03 in Calm   1.0 mph 60% 0.00 in SCT
16:55 82.8 °F 66.5 °F 30.03 in Calm   1.0 mph 58% 0.00 in SCT
17:00 82.6 °F 66.8 °F 30.03 in Calm   1.0 mph 59% 0.00 in SCT
17:05 82.7 °F 66.0 °F 30.03 in Calm   3.0 mph 57% 0.00 in SCT
17:10 83.0 °F 66.2 °F 30.03 in Calm   2.0 mph 57% 0.00 in SCT
17:20 83.1 °F 67.7 °F 30.03 in Calm     60% 0.00 in SCT
17:25 83.4 °F 67.6 °F 30.03 in Calm   1.0 mph 59% 0.00 in SCT
17:30 83.7 °F 66.8 °F 30.03 in WNW 1.0 mph 2.0 mph 57% 0.00 in SCT
17:35 83.7 °F 66.9 °F 30.03 in Calm   2.0 mph 57% 0.00 in SCT
17:40 83.7 °F 66.8 °F 30.03 in Calm   1.0 mph 57% 0.00 in SCT
17:45 83.7 °F 67.4 °F 30.02 in Calm   1.0 mph 58% 0.00 in SCT
17:50 83.6 °F 65.7 °F 30.02 in Calm   1.0 mph 55% 0.00 in SCT
18:00 83.4 °F 67.1 °F 30.02 in Calm   1.0 mph 58% 0.00 in SCT
18:05 83.2 °F 65.9 °F 30.02 in Calm   1.0 mph 56% 0.00 in SCT
18:10 82.9 °F 66.1 °F 30.02 in Calm     57% 0.00 in SCT
18:15 82.8 °F 66.0 °F 30.02 in Calm   1.0 mph 57% 0.00 in SCT
18:20 83.0 °F 66.2 °F 30.02 in Calm   1.0 mph 57% 0.00 in SCT
18:25 83.1 °F 65.8 °F 30.02 in Calm   2.0 mph 56% 0.00 in SCT
18:30 82.8 °F 65.5 °F 30.02 in Calm   3.0 mph 56% 0.00 in SCT
18:35 82.7 °F 65.4 °F 30.02 in Calm   1.0 mph 56% 0.00 in SCT
18:40 82.6 °F 65.3 °F 30.02 in Calm   1.0 mph 56% 0.00 in SCT
18:45 82.5 °F 65.7 °F 30.02 in Calm   2.0 mph 57% 0.00 in SCT
18:50 82.2 °F 65.9 °F 30.02 in Calm   1.0 mph 58% 0.00 in SCT
18:55 81.9 °F 65.6 °F 30.02 in Calm     58% 0.00 in SCT
19:00 81.5 °F 66.3 °F 30.02 in Calm   1.0 mph 60% 0.00 in SCT
19:05 81.2 °F 66.0 °F 30.02 in Calm     60% 0.00 in SCT
19:10 81.0 °F 67.2 °F 30.02 in Calm     63% 0.00 in SCT
19:15 80.9 °F 67.6 °F 30.02 in Calm     64% 0.00 in SCT
19:20 80.6 °F 67.8 °F 30.02 in Calm   1.0 mph 65% 0.00 in SCT
19:25 80.3 °F 67.0 °F 30.02 in Calm     64% 0.00 in SCT
19:30 80.1 °F 66.8 °F 30.02 in Calm     64% 0.00 in SCT
19:35 80.0 °F 66.7 °F 30.02 in Calm     64% 0.00 in SCT
19:40 79.9 °F 66.6 °F 30.02 in Calm     64% 0.00 in SCT
19:45 79.7 °F 66.4 °F 30.02 in Calm   1.0 mph 64% 0.00 in SCT
19:50 79.6 °F 66.8 °F 30.02 in Calm   1.0 mph 65% 0.00 in SCT
19:55 79.4 °F 67.0 °F 30.02 in Calm     66% 0.00 in SCT
20:00 79.2 °F 66.9 °F 30.02 in Calm     66% 0.00 in SCT
20:05 78.9 °F 67.0 °F 30.02 in Calm     67% 0.00 in SCT
20:10 78.7 °F 66.8 °F 30.02 in Calm     67% 0.00 in SCT
20:15 78.5 °F 66.6 °F 30.02 in Calm     67% 0.00 in SCT
20:20 78.3 °F 66.8 °F 30.03 in Calm   1.0 mph 68% 0.00 in FEW
20:25 78.1 °F 66.2 °F 30.03 in Calm     67% 0.00 in FEW
20:30 77.9 °F 66.1 °F 30.03 in Calm     67% 0.00 in FEW
20:35 77.7 °F 65.9 °F 30.02 in Calm   1.0 mph 67% 0.00 in FEW
20:40 77.5 °F 66.1 °F 30.03 in Calm   1.0 mph 68% 0.00 in FEW
20:45 77.4 °F 65.6 °F 30.03 in Calm     67% 0.00 in FEW
20:50 77.3 °F 65.5 °F 30.03 in Calm   1.0 mph 67% 0.00 in FEW
20:55 77.2 °F 65.4 °F 30.03 in Calm   1.0 mph 67% 0.00 in FEW
21:00 77.0 °F 64.8 °F 30.03 in Calm     66% 0.00 in FEW
21:05 76.9 °F 65.1 °F 30.03 in Calm     67% 0.00 in FEW
21:10 76.7 °F 65.3 °F 30.03 in Calm     68% 0.00 in FEW
21:15 76.5 °F 64.3 °F 30.03 in Calm     66% 0.00 in FEW
21:25 76.0 °F 64.2 °F 30.04 in Calm     67% 0.00 in FEW
21:30 75.8 °F 64.1 °F 30.04 in Calm     67% 0.00 in FEW
21:35 75.6 °F 64.7 °F 30.04 in Calm     69% 0.00 in FEW
21:40 75.4 °F 64.5 °F 30.04 in Calm     69% 0.00 in FEW
21:45 75.2 °F 64.3 °F 30.04 in Calm     69% 0.00 in FEW
21:50 74.9 °F 64.1 °F 30.04 in Calm     69% 0.00 in FEW
21:55 74.7 °F 63.8 °F 30.04 in Calm     69% 0.00 in FEW
22:00 74.4 °F 64.4 °F 30.05 in Calm     71% 0.00 in FEW
22:05 74.3 °F 63.9 °F 30.04 in Calm     70% 0.00 in FEW
22:10 74.1 °F 63.7 °F 30.05 in Calm     70% 0.00 in FEW
22:15 73.9 °F 63.9 °F 30.05 in Calm     71% 0.00 in FEW
22:20 73.7 °F 64.1 °F 30.05 in Calm     72% 0.00 in BKN
22:25 73.5 °F 63.9 °F 30.05 in Calm     72% 0.00 in BKN
22:30 73.3 °F 62.9 °F 30.05 in Calm     70% 0.00 in BKN
22:35 73.1 °F 63.1 °F 30.05 in Calm     71% 0.00 in BKN
22:40 73.0 °F 61.4 °F 30.05 in Calm     67% 0.00 in BKN
22:50 73.0 °F 61.8 °F 30.05 in Calm     68% 0.00 in BKN
22:55 72.9 °F 61.7 °F 30.05 in Calm     68% 0.00 in BKN
23:00 72.8 °F 61.6 °F 30.05 in Calm     68% 0.00 in BKN
23:05 72.7 °F 62.3 °F 30.05 in Calm     70% 0.00 in BKN
23:15 72.5 °F 62.9 °F 30.05 in Calm     72% 0.00 in BKN
23:20 72.3 °F 62.8 °F 30.05 in Calm     72% 0.00 in FEW
23:25 72.2 °F 63.4 °F 30.05 in Calm     74% 0.00 in FEW
23:30 72.0 °F 63.3 °F 30.05 in Calm     74% 0.00 in FEW
23:35 71.9 °F 62.7 °F 30.05 in Calm     73% 0.00 in FEW
23:40 71.7 °F 62.6 °F 30.05 in Calm     73% 0.00 in FEW
23:45 71.7 °F 62.6 °F 30.05 in Calm     73% 0.00 in FEW
23:50 71.6 °F 61.7 °F 30.05 in Calm     71% 0.00 in FEW
23:55 71.4 °F 60.7 °F 30.05 in Calm     69% 0.00 in FEW
Piedmont Bend
Compliments of Weather Underground - 2 mb